createdAt,value
2022-12-23T00:01:20.771Z,5.12
2022-12-23T00:03:48.510Z,5.07
2022-12-23T00:06:18.113Z,5.12
2022-12-23T00:08:47.596Z,5.13
2022-12-23T00:11:18.018Z,5.12
2022-12-23T00:14:03.615Z,5.11
2022-12-23T00:16:31.495Z,5.08
2022-12-23T00:18:59.161Z,5.05
2022-12-23T00:21:29.168Z,5.03
2022-12-23T00:23:58.171Z,5.03
2022-12-23T00:26:27.704Z,5.05
2022-12-23T00:28:57.571Z,5.03
2022-12-23T00:31:25.815Z,5.03
2022-12-23T00:33:54.474Z,5.05
2022-12-23T00:36:27.454Z,5.08
2022-12-23T00:39:13.835Z,5.03
2022-12-23T00:42:00.470Z,4.97
2022-12-23T00:44:28.231Z,4.94
2022-12-23T00:46:55.966Z,4.89
2022-12-23T00:49:41.329Z,4.84
2022-12-23T00:52:11.547Z,4.82
2022-12-23T00:54:39.254Z,4.78
2022-12-23T00:57:08.288Z,4.79
2022-12-23T00:59:35.931Z,4.80
2022-12-23T01:02:21.844Z,4.79
2022-12-23T01:05:07.379Z,4.76
2022-12-23T01:07:35.094Z,4.81
2022-12-23T01:10:02.837Z,4.84
2022-12-23T01:12:31.824Z,4.87
2022-12-23T01:14:59.570Z,4.84
2022-12-23T01:17:27.323Z,4.84
2022-12-23T01:19:54.927Z,4.92
2022-12-23T01:22:22.599Z,4.84
2022-12-23T01:24:50.217Z,4.86
2022-12-23T01:27:17.885Z,4.90
2022-12-23T01:29:46.977Z,4.90
2022-12-23T01:32:15.222Z,4.94
2022-12-23T01:34:42.973Z,4.92
2022-12-23T01:37:10.579Z,4.92
2022-12-23T01:39:38.233Z,4.92
2022-12-23T01:42:33.900Z,4.92
2022-12-23T01:45:05.464Z,4.91
2022-12-23T01:47:37.880Z,4.90
2022-12-23T01:50:10.927Z,4.88
2022-12-23T01:52:43.722Z,4.84
2022-12-23T01:55:12.599Z,4.84
2022-12-23T01:57:43.259Z,4.84
2022-12-23T02:00:30.605Z,4.84
2022-12-23T02:03:15.909Z,4.84
2022-12-23T02:05:45.766Z,4.82
2022-12-23T02:08:32.920Z,4.84
2022-12-23T02:11:20.718Z,4.86
2022-12-23T02:14:16.975Z,4.90
2022-12-23T02:16:52.831Z,4.86
2022-12-23T02:19:35.755Z,4.84
2022-12-23T02:22:22.082Z,4.86
2022-12-23T02:25:06.516Z,4.85
2022-12-23T02:27:43.614Z,4.82
2022-12-23T02:30:35.085Z,4.82
2022-12-23T02:33:32.708Z,4.80
2022-12-23T02:36:11.471Z,4.87
2022-12-23T02:38:46.992Z,4.93
2022-12-23T02:41:21.279Z,4.85
2022-12-23T02:43:53.027Z,4.84
2022-12-23T02:46:31.061Z,4.85
2022-12-23T02:49:05.874Z,4.85
2022-12-23T02:51:37.723Z,4.83
2022-12-23T02:54:10.144Z,4.84
2022-12-23T02:56:43.100Z,4.88
2022-12-23T02:59:14.379Z,4.92
2022-12-23T03:01:44.956Z,4.94
2022-12-23T03:04:13.061Z,4.92
2022-12-23T03:06:42.738Z,4.92
2022-12-23T03:09:17.489Z,4.92
2022-12-23T03:11:53.753Z,4.94
2022-12-23T03:14:37.206Z,4.96
2022-12-23T03:17:20.975Z,4.96
2022-12-23T03:19:55.075Z,5.04
2022-12-23T03:22:31.575Z,4.95
2022-12-23T03:25:06.604Z,4.91
2022-12-23T03:27:40.449Z,4.88
2022-12-23T03:30:11.859Z,4.91
2022-12-23T03:32:47.900Z,4.93
2022-12-23T03:35:18.685Z,4.94
2022-12-23T03:37:50.484Z,4.91
2022-12-23T03:40:22.911Z,4.87
2022-12-23T03:42:58.659Z,4.87
2022-12-23T03:45:39.780Z,4.88
2022-12-23T03:48:14.640Z,4.91
2022-12-23T03:50:44.092Z,4.91
2022-12-23T03:53:18.522Z,4.91
2022-12-23T03:55:52.660Z,4.94
2022-12-23T03:58:30.504Z,4.93
2022-12-23T04:01:03.820Z,4.91
2022-12-23T04:03:38.171Z,4.88
2022-12-23T04:06:11.861Z,4.86
2022-12-23T04:08:40.888Z,4.86
2022-12-23T04:11:09.322Z,4.84
2022-12-23T04:13:37.005Z,4.89
2022-12-23T04:16:05.663Z,4.90
2022-12-23T04:18:34.947Z,4.91
2022-12-23T04:21:02.678Z,4.91
2022-12-23T04:23:30.447Z,4.91
2022-12-23T04:25:58.095Z,4.89
2022-12-23T04:28:25.751Z,4.92
2022-12-23T04:30:53.361Z,4.91
2022-12-23T04:33:20.966Z,4.88
2022-12-23T04:35:50.034Z,4.88
2022-12-23T04:38:17.734Z,4.92
2022-12-23T04:40:46.865Z,4.94
2022-12-23T04:43:15.490Z,4.97
2022-12-23T04:45:43.109Z,4.99
2022-12-23T04:48:10.739Z,4.99
2022-12-23T04:50:38.434Z,5.00
2022-12-23T04:53:07.474Z,4.97
2022-12-23T04:55:35.233Z,4.97
2022-12-23T04:58:02.840Z,4.95
2022-12-23T05:00:35.476Z,4.96
2022-12-23T05:03:06.873Z,5.00
2022-12-23T05:05:34.685Z,5.01
2022-12-23T05:08:05.084Z,5.06
2022-12-23T05:10:34.125Z,5.07
2022-12-23T05:13:01.855Z,5.06
2022-12-23T05:15:29.490Z,5.07
2022-12-23T05:17:57.156Z,5.08
2022-12-23T05:20:24.854Z,5.08
2022-12-23T05:22:52.464Z,5.08
2022-12-23T05:25:20.199Z,5.06
2022-12-23T05:27:49.209Z,5.07
2022-12-23T05:30:17.082Z,5.07
2022-12-23T05:32:44.761Z,5.07
2022-12-23T05:35:12.384Z,5.06
2022-12-23T05:37:40.069Z,5.06
2022-12-23T05:40:08.949Z,5.07
2022-12-23T05:42:36.654Z,5.06
2022-12-23T05:45:06.341Z,5.07
2022-12-23T05:47:34.018Z,5.03
2022-12-23T05:50:01.791Z,5.03
2022-12-23T05:52:29.527Z,5.03
2022-12-23T05:54:57.328Z,5.05
2022-12-23T05:57:25.081Z,5.06
2022-12-23T05:59:52.750Z,5.06
2022-12-23T06:02:22.384Z,5.06
2022-12-23T06:04:50.352Z,5.11
2022-12-23T06:07:18.099Z,5.09
2022-12-23T06:09:45.821Z,5.08
2022-12-23T06:12:13.499Z,5.06
2022-12-23T06:14:41.166Z,5.06
2022-12-23T06:17:08.862Z,5.06
2022-12-23T06:19:38.027Z,5.07
2022-12-23T06:22:05.778Z,5.08
2022-12-23T06:24:33.467Z,5.11
2022-12-23T06:27:01.169Z,5.11
2022-12-23T06:29:29.227Z,5.11
2022-12-23T06:31:56.918Z,5.12
2022-12-23T06:34:24.734Z,5.11
2022-12-23T06:36:54.354Z,5.11
2022-12-23T06:39:21.994Z,5.13
2022-12-23T06:41:49.868Z,5.15
2022-12-23T06:44:18.152Z,5.13
2022-12-23T06:46:45.814Z,5.15
2022-12-23T06:49:14.065Z,5.16
2022-12-23T06:51:42.274Z,5.18
2022-12-23T06:54:12.644Z,5.17
2022-12-23T06:56:40.364Z,5.18
2022-12-23T06:59:08.015Z,5.17
2022-12-23T07:01:35.769Z,5.19
2022-12-23T07:04:03.665Z,5.19
2022-12-23T07:06:31.358Z,5.19
2022-12-23T07:08:59.168Z,5.18
2022-12-23T07:11:28.101Z,5.19
2022-12-23T07:13:55.759Z,5.19
2022-12-23T07:16:23.393Z,5.23
2022-12-23T07:18:51.084Z,5.22
2022-12-23T07:21:28.315Z,5.24
2022-12-23T07:23:56.970Z,5.28
2022-12-23T07:26:24.689Z,5.29
2022-12-23T07:28:53.690Z,5.31
2022-12-23T07:31:21.433Z,5.40
2022-12-23T07:33:49.147Z,5.44
2022-12-23T07:36:16.768Z,5.46
2022-12-23T07:38:44.517Z,5.48
2022-12-23T07:41:12.232Z,5.47
2022-12-23T07:43:40.071Z,5.49
2022-12-23T07:46:10.173Z,5.48
2022-12-23T07:48:37.894Z,5.54
2022-12-23T07:51:05.956Z,5.60
2022-12-23T07:53:33.712Z,5.59
2022-12-23T07:56:01.539Z,5.67
2022-12-23T07:58:29.168Z,5.69
2022-12-23T08:01:03.981Z,5.67
2022-12-23T08:03:33.173Z,5.63
2022-12-23T08:06:02.449Z,5.60
2022-12-23T08:08:30.113Z,5.62
2022-12-23T08:10:59.838Z,5.58
2022-12-23T08:13:28.003Z,5.58
2022-12-23T08:15:57.168Z,5.63
2022-12-23T08:18:25.596Z,5.63
2022-12-23T08:20:59.712Z,5.67
2022-12-23T08:23:28.814Z,5.72
2022-12-23T08:26:02.044Z,5.75
2022-12-23T08:28:30.315Z,5.78
2022-12-23T08:31:04.913Z,5.81
2022-12-23T08:33:32.662Z,5.86
2022-12-23T08:36:02.065Z,5.89
2022-12-23T08:38:29.996Z,5.92
2022-12-23T08:40:57.668Z,5.94
2022-12-23T08:43:30.211Z,5.96
2022-12-23T08:46:01.461Z,6.04
2022-12-23T08:48:29.162Z,6.01
2022-12-23T08:50:56.825Z,6.00
2022-12-23T08:53:25.827Z,5.98
2022-12-23T08:55:53.475Z,5.95
2022-12-23T08:58:21.119Z,5.94
2022-12-23T09:00:48.785Z,5.95
2022-12-23T09:03:16.547Z,6.02
2022-12-23T09:05:44.309Z,5.99
2022-12-23T09:08:11.950Z,5.99
2022-12-23T09:10:44.094Z,5.96
2022-12-23T09:13:17.945Z,5.94
2022-12-23T09:15:50.291Z,5.92
2022-12-23T09:18:18.077Z,5.98
2022-12-23T09:20:45.799Z,5.96
2022-12-23T09:23:13.461Z,5.95
2022-12-23T09:25:41.125Z,6.00
2022-12-23T09:28:10.552Z,6.04
2022-12-23T09:30:38.158Z,6.05
2022-12-23T09:33:05.811Z,6.09
2022-12-23T09:35:34.112Z,6.03
2022-12-23T09:38:01.825Z,6.08
2022-12-23T09:40:33.133Z,6.09
2022-12-23T09:43:14.043Z,6.06
2022-12-23T09:45:59.962Z,6.02
2022-12-23T09:48:36.897Z,6.06
2022-12-23T09:51:06.234Z,6.12
2022-12-23T09:53:46.317Z,6.15
2022-12-23T09:56:19.513Z,6.10
2022-12-23T09:58:52.734Z,6.10
2022-12-23T10:01:31.077Z,6.12
2022-12-23T10:04:26.041Z,6.14
2022-12-23T10:07:04.810Z,6.11
2022-12-23T10:09:37.933Z,6.17
2022-12-23T10:12:15.209Z,6.20
2022-12-23T10:14:45.587Z,6.17
2022-12-23T10:17:18.946Z,6.17
2022-12-23T10:19:49.022Z,6.14
2022-12-23T10:22:21.969Z,6.15
2022-12-23T10:24:50.476Z,6.13
2022-12-23T10:27:24.620Z,6.11
2022-12-23T10:29:52.434Z,6.10
2022-12-23T10:32:37.708Z,6.15
2022-12-23T10:35:14.686Z,6.16
2022-12-23T10:37:48.907Z,6.16
2022-12-23T10:40:24.285Z,6.15
2022-12-23T10:43:05.331Z,6.15
2022-12-23T10:45:46.069Z,6.21
2022-12-23T10:48:28.488Z,6.23
2022-12-23T10:51:00.768Z,6.21
2022-12-23T10:53:36.736Z,6.28
2022-12-23T10:56:06.601Z,6.25
2022-12-23T10:58:37.874Z,6.31
2022-12-23T11:01:15.227Z,6.30
2022-12-23T11:03:52.437Z,6.31
2022-12-23T11:06:20.581Z,6.33
2022-12-23T11:08:48.571Z,6.39
2022-12-23T11:11:16.252Z,6.34
2022-12-23T11:13:45.792Z,6.38
2022-12-23T11:16:19.789Z,6.42
2022-12-23T11:18:57.732Z,6.44
2022-12-23T11:21:25.811Z,6.38
2022-12-23T11:24:08.682Z,6.36
2022-12-23T11:26:37.108Z,6.33
2022-12-23T11:29:07.971Z,6.41
2022-12-23T11:31:36.751Z,6.43
2022-12-23T11:34:08.157Z,6.43
2022-12-23T11:36:36.241Z,6.48
2022-12-23T11:39:08.420Z,6.41
2022-12-23T11:41:38.981Z,6.42
2022-12-23T11:44:11.622Z,6.39
2022-12-23T11:46:39.305Z,6.40
2022-12-23T11:49:16.751Z,6.40
2022-12-23T11:51:45.417Z,6.41
2022-12-23T11:54:18.275Z,6.39
2022-12-23T11:56:50.966Z,6.41
2022-12-23T11:59:31.461Z,6.37
2022-12-23T12:02:01.094Z,6.42
2022-12-23T12:04:33.827Z,6.43
2022-12-23T12:07:02.823Z,6.45
2022-12-23T12:09:31.854Z,6.44
2022-12-23T12:12:05.554Z,6.49
2022-12-23T12:14:38.769Z,6.44
2022-12-23T12:17:16.306Z,6.41
2022-12-23T12:19:56.377Z,6.42
2022-12-23T12:22:33.373Z,6.47
2022-12-23T12:25:07.584Z,6.49
2022-12-23T12:27:39.311Z,6.55
2022-12-23T12:30:13.486Z,6.52
2022-12-23T12:32:47.880Z,6.51
2022-12-23T12:35:20.921Z,6.49
2022-12-23T12:37:53.008Z,6.51
2022-12-23T12:40:31.225Z,6.53
2022-12-23T12:43:03.296Z,6.53
2022-12-23T12:45:39.107Z,6.52
2022-12-23T12:48:30.420Z,6.51
2022-12-23T12:51:05.526Z,6.48
2022-12-23T12:53:34.506Z,6.45
2022-12-23T12:56:09.229Z,6.48
2022-12-23T12:58:36.926Z,6.53
2022-12-23T13:01:18.405Z,6.51
2022-12-23T13:04:05.033Z,6.57
2022-12-23T13:06:43.760Z,6.64
2022-12-23T13:09:21.598Z,6.67
2022-12-23T13:11:59.186Z,6.70
2022-12-23T13:14:42.034Z,6.71
2022-12-23T13:17:19.080Z,6.79
2022-12-23T13:19:54.548Z,6.85
2022-12-23T13:22:28.319Z,6.87
2022-12-23T13:25:01.602Z,6.81
2022-12-23T13:27:33.928Z,6.78
2022-12-23T13:30:08.052Z,6.72
2022-12-23T13:32:53.530Z,6.66
2022-12-23T13:35:35.754Z,6.66
2022-12-23T13:38:18.797Z,6.64
2022-12-23T13:40:57.791Z,6.63
2022-12-23T13:43:30.272Z,6.62
2022-12-23T13:46:04.109Z,6.69
2022-12-23T13:48:41.717Z,6.59
2022-12-23T13:51:17.780Z,6.48
2022-12-23T13:54:04.183Z,6.48
2022-12-23T13:56:39.627Z,6.44
2022-12-23T13:59:11.083Z,6.37
2022-12-23T14:01:46.977Z,6.31
2022-12-23T14:04:33.527Z,6.26
2022-12-23T14:07:03.802Z,6.24
2022-12-23T14:09:35.978Z,6.21
2022-12-23T14:12:13.951Z,6.20
2022-12-23T14:14:49.743Z,6.21
2022-12-23T14:17:25.997Z,6.25
2022-12-23T14:20:04.541Z,6.25
2022-12-23T14:22:49.721Z,6.27
2022-12-23T14:25:50.485Z,6.30
2022-12-23T14:28:28.899Z,6.34
2022-12-23T14:30:57.165Z,6.28
2022-12-23T14:33:27.488Z,6.30
2022-12-23T14:35:58.108Z,6.31
2022-12-23T14:38:33.075Z,6.28
2022-12-23T14:41:37.174Z,6.30
2022-12-23T14:44:18.527Z,6.31
2022-12-23T14:46:57.042Z,6.35
2022-12-23T14:49:40.737Z,6.39
2022-12-23T14:52:59.510Z,6.32
2022-12-23T14:55:47.035Z,6.24
2022-12-23T14:58:30.071Z,6.19
2022-12-23T15:01:03.217Z,6.14
2022-12-23T15:03:34.958Z,6.12
2022-12-23T15:06:07.515Z,6.11
2022-12-23T15:08:40.341Z,6.11
2022-12-23T15:11:10.411Z,6.11
2022-12-23T15:13:39.830Z,6.09
2022-12-23T15:16:08.187Z,6.10
2022-12-23T15:18:36.053Z,6.12
2022-12-23T15:21:05.635Z,6.10
2022-12-23T15:23:33.852Z,6.05
2022-12-23T15:26:02.430Z,6.07
2022-12-23T15:28:37.054Z,6.07
2022-12-23T15:31:07.361Z,6.08
2022-12-23T15:34:02.391Z,6.15
2022-12-23T15:36:31.937Z,6.11
2022-12-23T15:39:01.468Z,6.09
2022-12-23T15:41:29.934Z,6.10
2022-12-23T15:44:01.529Z,6.09
2022-12-23T15:46:32.848Z,6.06
2022-12-23T15:49:00.628Z,6.05
2022-12-23T15:54:25.364Z,5.96
2022-12-23T15:56:55.125Z,5.95
2022-12-23T15:59:26.367Z,5.94
2022-12-23T16:01:55.920Z,5.90
2022-12-23T16:04:28.062Z,5.83
2022-12-23T16:06:57.142Z,5.75
2022-12-23T16:09:34.290Z,5.68
2022-12-23T16:12:04.047Z,5.63
2022-12-23T16:14:37.929Z,5.61
2022-12-23T16:17:23.651Z,5.57
2022-12-23T16:19:53.301Z,5.57
2022-12-23T16:22:27.297Z,5.57
2022-12-23T16:25:02.603Z,5.60
2022-12-23T16:27:37.200Z,5.62
2022-12-23T16:30:11.305Z,5.63
2022-12-23T16:32:52.570Z,5.63
2022-12-23T16:35:34.381Z,5.63
2022-12-23T16:38:16.512Z,5.72
2022-12-23T16:40:46.517Z,5.77
2022-12-23T16:43:14.363Z,5.76
2022-12-23T16:45:42.655Z,5.72
2022-12-23T16:48:19.651Z,5.76
2022-12-23T16:50:48.071Z,5.71
2022-12-23T16:53:16.064Z,5.68
2022-12-23T16:55:51.182Z,5.74
2022-12-23T16:58:20.491Z,5.77
2022-12-23T17:00:48.337Z,5.75
2022-12-23T17:03:19.418Z,5.75
2022-12-23T17:05:47.802Z,5.71
2022-12-23T17:08:15.529Z,5.66
2022-12-23T17:10:44.814Z,5.65
2022-12-23T17:13:15.042Z,5.64
2022-12-23T17:15:42.686Z,5.63
2022-12-23T17:18:14.102Z,5.60
2022-12-23T17:20:44.182Z,5.60
2022-12-23T17:23:25.117Z,5.57
2022-12-23T17:25:52.888Z,5.58
2022-12-23T17:28:20.761Z,5.58
2022-12-23T17:30:50.242Z,5.58
2022-12-23T17:33:20.273Z,5.58
2022-12-23T17:35:49.347Z,5.57
2022-12-23T17:38:17.723Z,5.66
2022-12-23T17:40:48.516Z,5.62
2022-12-23T17:43:17.596Z,5.57
2022-12-23T17:45:46.933Z,5.55
2022-12-23T17:48:20.765Z,5.54
2022-12-23T17:50:52.314Z,5.55
2022-12-23T17:53:20.840Z,5.54
2022-12-23T17:55:48.546Z,5.52
2022-12-23T17:58:16.258Z,5.55
2022-12-23T18:00:43.890Z,5.54
2022-12-23T18:03:23.000Z,5.53
2022-12-23T18:06:00.873Z,5.56
2022-12-23T18:08:29.123Z,5.55
2022-12-23T18:10:58.326Z,5.54
2022-12-23T18:13:26.071Z,5.53
2022-12-23T18:15:53.746Z,5.51
2022-12-23T18:18:31.239Z,5.52
2022-12-23T18:21:02.215Z,5.47
2022-12-23T18:23:32.577Z,5.44
2022-12-23T18:26:01.249Z,5.43
2022-12-23T18:28:29.151Z,5.41
2022-12-23T18:30:58.217Z,5.39
2022-12-23T18:33:28.706Z,5.38
2022-12-23T18:35:56.447Z,5.37
2022-12-23T18:38:25.503Z,5.35
2022-12-23T18:40:54.422Z,5.35
2022-12-23T18:43:23.822Z,5.36
2022-12-23T18:45:53.758Z,5.38
2022-12-23T18:48:22.811Z,5.37
2022-12-23T18:50:50.548Z,5.38
2022-12-23T18:53:24.639Z,5.36
2022-12-23T18:55:54.714Z,5.35
2022-12-23T18:58:22.903Z,5.31
2022-12-23T19:00:52.550Z,5.30
2022-12-23T19:03:23.337Z,5.30
2022-12-23T19:05:51.582Z,5.30
2022-12-23T19:08:25.807Z,5.33
2022-12-23T19:10:56.637Z,5.33
2022-12-23T19:13:24.907Z,5.33
2022-12-23T19:15:52.725Z,5.33
2022-12-23T19:18:22.685Z,5.37
2022-12-23T19:20:50.847Z,5.35
2022-12-23T19:23:18.536Z,5.34
2022-12-23T19:25:54.527Z,5.36
2022-12-23T19:28:24.633Z,5.34
2022-12-23T19:30:52.581Z,5.33
2022-12-23T19:33:20.319Z,5.33
2022-12-23T19:35:48.057Z,5.33
2022-12-23T19:38:15.735Z,5.31
2022-12-23T19:40:43.340Z,5.30
2022-12-23T19:43:11.201Z,5.31
2022-12-23T19:45:40.245Z,5.31
2022-12-23T19:48:07.871Z,5.29
2022-12-23T19:50:35.569Z,5.25
2022-12-23T19:53:03.256Z,5.24
2022-12-23T19:55:30.869Z,5.24
2022-12-23T19:57:58.490Z,5.22
2022-12-23T20:00:26.145Z,5.26
2022-12-23T20:02:59.002Z,5.27
2022-12-23T20:05:27.024Z,5.27
2022-12-23T20:07:54.669Z,5.28
2022-12-23T20:10:22.421Z,5.29
2022-12-23T20:12:50.081Z,5.29
2022-12-23T20:15:17.929Z,5.31
2022-12-23T20:17:45.584Z,5.29
2022-12-23T20:20:14.834Z,5.29
2022-12-23T20:22:42.490Z,5.31
2022-12-23T20:25:10.573Z,5.31
2022-12-23T20:27:38.750Z,5.31
2022-12-23T20:30:07.701Z,5.34
2022-12-23T20:32:35.357Z,5.34
2022-12-23T20:35:03.193Z,5.33
2022-12-23T20:37:32.201Z,5.36
2022-12-23T20:39:59.836Z,5.36
2022-12-23T20:42:27.942Z,5.34
2022-12-23T20:44:55.653Z,5.34
2022-12-23T20:47:23.314Z,5.31
2022-12-23T20:49:51.013Z,5.29
2022-12-23T20:52:18.714Z,5.34
2022-12-23T20:54:48.200Z,5.31
2022-12-23T20:57:15.869Z,5.30
2022-12-23T20:59:43.522Z,5.28
2022-12-23T21:02:13.863Z,5.29
2022-12-23T21:04:41.756Z,5.31
2022-12-23T21:07:09.588Z,5.29
2022-12-23T21:09:37.318Z,5.27
2022-12-23T21:12:06.841Z,5.27
2022-12-23T21:14:34.590Z,5.27
2022-12-23T21:17:02.258Z,5.26
2022-12-23T21:19:30.123Z,5.27
2022-12-23T21:21:58.513Z,5.23
2022-12-23T21:24:26.373Z,5.24
2022-12-23T21:26:56.738Z,5.23
2022-12-23T21:29:26.311Z,5.21
2022-12-23T21:31:54.837Z,5.23
2022-12-23T21:34:22.905Z,5.22
2022-12-23T21:36:50.708Z,5.21
2022-12-23T21:39:18.412Z,5.21
2022-12-23T21:41:46.165Z,5.18
2022-12-23T21:44:14.693Z,5.15
2022-12-23T21:46:43.924Z,5.18
2022-12-23T21:49:12.225Z,5.17
2022-12-23T21:51:41.251Z,5.13
2022-12-23T21:54:10.878Z,5.14
2022-12-23T21:56:39.463Z,5.13
2022-12-23T21:59:09.412Z,5.10
2022-12-23T22:01:37.233Z,5.07
2022-12-23T22:04:06.341Z,5.11
2022-12-23T22:06:39.348Z,5.09
2022-12-23T22:09:08.683Z,5.11
2022-12-23T22:11:37.782Z,5.12
2022-12-23T22:14:07.795Z,5.11
2022-12-23T22:16:36.474Z,5.12
2022-12-23T22:19:08.533Z,5.13
2022-12-23T22:21:37.438Z,5.13
2022-12-23T22:24:05.997Z,5.12
2022-12-23T22:26:34.729Z,5.10
2022-12-23T22:29:04.012Z,5.11
2022-12-23T22:31:35.369Z,5.12
2022-12-23T22:34:04.683Z,5.11
2022-12-23T22:36:34.300Z,5.11
2022-12-23T22:39:02.971Z,5.08
2022-12-23T22:41:31.555Z,5.08
2022-12-23T22:43:59.740Z,5.07
2022-12-23T22:46:27.933Z,5.08
2022-12-23T22:48:56.363Z,5.07
2022-12-23T22:51:25.935Z,5.14
2022-12-23T22:53:55.044Z,5.08
2022-12-23T22:56:24.017Z,5.03
2022-12-23T22:58:52.841Z,5.03
2022-12-23T23:01:23.799Z,5.04
2022-12-23T23:03:56.952Z,5.00
2022-12-23T23:06:25.854Z,5.00
2022-12-23T23:08:55.630Z,4.97
2022-12-23T23:11:24.159Z,5.00
2022-12-23T23:13:52.258Z,5.02
2022-12-23T23:16:19.986Z,5.01
2022-12-23T23:18:49.331Z,4.99
2022-12-23T23:21:17.214Z,4.99
2022-12-23T23:23:44.986Z,5.02
2022-12-23T23:26:14.909Z,4.96
2022-12-23T23:28:42.899Z,4.94
2022-12-23T23:31:45.080Z,4.96
2022-12-23T23:33:58.688Z,4.96
2022-12-23T23:36:26.501Z,4.91
2022-12-23T23:38:54.215Z,4.91
2022-12-23T23:41:24.279Z,4.87
2022-12-23T23:43:52.227Z,4.86
2022-12-23T23:46:20.371Z,4.86
2022-12-23T23:48:48.236Z,4.85
2022-12-23T23:51:16.142Z,4.84
2022-12-23T23:53:43.824Z,4.86
2022-12-23T23:56:11.674Z,4.82
2022-12-23T23:58:40.748Z,4.80
